Time;durP1;ratioP1;P1;durP2;ratioP2;P2;SDS_P1;SDS_P2;PMS_P1;PMS_P2;Temp;Humidity;BMP_temperature;BMP_pressure;BME280_temperature;BME280_humidity;BME280_pressure;Samples;Min_cycle;Max_cycle;Signal;HPM_P1;HPM_P2
2022/08/23 04:13:23;;;;;;;22.35;12.63;;;;;;;16.71;100.00;98691.23;4663182;74;23027;-85
2022/08/23 04:19:25;;;;;;;26.45;15.03;;;;;;;16.71;100.00;98697.52;4421050;78;21564;-86
2022/08/23 04:25:34;;;;;;;19.52;12.78;;;;;;;16.81;100.00;98697.16;4435186;78;20990;-85
2022/08/23 04:31:36;;;;;;;20.95;11.40;;;;;;;16.91;100.00;98699.71;4464236;78;21030;-86
2022/08/23 04:37:38;;;;;;;26.30;14.58;;;;;;;17.02;100.00;98693.38;4468025;78;21060;-85
2022/08/23 04:43:44;;;;;;;20.90;13.40;;;;;;;17.06;100.00;98702.99;4457055;78;21024;-86
2022/08/23 04:49:47;;;;;;;27.30;15.55;;;;;;;17.12;100.00;98704.84;4453107;78;21070;-85
2022/08/23 04:55:51;;;;;;;23.32;13.78;;;;;;;17.20;100.00;98712.39;4469212;78;21015;-86
2022/08/23 05:01:52;;;;;;;32.58;17.25;;;;;;;17.24;100.00;98711.11;4458904;78;20992;-85
2022/08/23 05:07:54;;;;;;;34.33;18.90;;;;;;;17.32;100.00;98727.59;4477490;78;20981;-86
2022/08/23 05:13:58;;;;;;;32.88;17.87;;;;;;;17.39;100.00;98731.58;4479761;78;21023;-86
2022/08/23 05:20:00;;;;;;;31.80;17.98;;;;;;;17.49;100.00;98737.54;4462337;78;21531;-87
2022/08/23 05:26:02;;;;;;;31.57;16.80;;;;;;;17.56;100.00;98752.00;4422072;79;21042;-86
2022/08/23 05:32:06;;;;;;;34.43;18.60;;;;;;;17.63;100.00;98747.72;4515296;77;21032;-86
2022/08/23 05:38:07;;;;;;;34.30;18.92;;;;;;;17.67;100.00;98755.33;4499784;77;21050;-86
2022/08/23 05:44:10;;;;;;;33.78;18.30;;;;;;;17.69;100.00;98754.91;4428811;78;21434;-86
2022/08/23 05:50:12;;;;;;;29.75;17.30;;;;;;;17.79;100.00;98764.36;4470743;79;21006;-86
2022/08/23 05:56:26;;;;;;;30.37;17.70;;;;;;;17.88;100.00;98766.56;4430339;79;21103;-85
2022/08/23 06:02:28;;;;;;;31.55;18.48;;;;;;;17.89;100.00;98764.75;4475182;78;21031;-86
2022/08/23 06:08:29;;;;;;;34.35;19.45;;;;;;;17.97;100.00;98770.31;4458507;78;21023;-86
2022/08/23 06:14:32;;;;;;;39.95;20.95;;;;;;;18.00;100.00;98773.60;4506078;77;22110;-86
2022/08/23 06:20:33;;;;;;;34.70;20.50;;;;;;;18.02;100.00;98774.56;4447039;77;20985;-86
2022/08/23 06:26:41;;;;;;;44.20;23.12;;;;;;;18.00;100.00;98790.22;4444583;78;21019;-88
2022/08/23 06:32:47;;;;;;;36.07;18.90;;;;;;;18.03;100.00;98784.41;4476983;76;21102;-86
2022/08/23 06:39:09;;;;;;;33.58;18.82;;;;;;;18.08;100.00;98794.40;4470881;78;21701;-87
2022/08/23 06:45:13;;;;;;;30.32;18.95;;;;;;;18.25;100.00;98803.51;4353374;78;21400;-87
2022/08/23 06:51:27;;;;;;;42.78;23.60;;;;;;;18.42;100.00;98802.34;4474890;78;21069;-84
2022/08/23 06:57:35;;;;;;;34.08;20.45;;;;;;;18.57;100.00;98802.97;4476758;78;21003;-85
2022/08/23 07:03:57;;;;;;;34.92;20.60;;;;;;;18.71;100.00;98817.11;4477686;78;20991;-85
2022/08/23 07:10:17;;;;;;;31.20;18.65;;;;;;;18.77;100.00;98807.06;4464373;78;21055;-85
2022/08/23 07:16:19;;;;;;;28.52;17.25;;;;;;;18.86;100.00;98803.06;4477560;78;21023;-85
2022/08/23 07:22:31;;;;;;;26.62;16.87;;;;;;;18.95;100.00;98810.78;4477973;78;21931;-86
2022/08/23 07:28:39;;;;;;;29.20;17.42;;;;;;;19.03;100.00;98812.92;4453563;78;21574;-85
2022/08/23 07:34:41;;;;;;;22.45;15.43;;;;;;;19.08;100.00;98814.39;4493673;78;20971;-85
2022/08/23 07:40:47;;;;;;;24.47;15.23;;;;;;;19.18;100.00;98820.28;4494320;78;20948;-85
2022/08/23 07:46:49;;;;;;;26.15;17.45;;;;;;;19.27;100.00;98826.77;4482697;78;21066;-85
2022/08/23 07:53:01;;;;;;;24.45;16.55;;;;;;;19.33;100.00;98833.97;4485333;78;21025;-84
2022/08/23 07:59:04;;;;;;;26.40;17.82;;;;;;;19.41;100.00;98840.30;4474280;78;21443;-84
2022/08/23 08:05:17;;;;;;;17.75;13.55;;;;;;;19.72;100.00;98827.53;4262099;79;21167;-84
2022/08/23 08:11:24;;;;;;;17.92;14.18;;;;;;;19.89;100.00;98836.56;4472817;78;21149;-84
2022/08/23 08:17:26;;;;;;;13.83;11.70;;;;;;;20.00;100.00;98841.20;4385420;79;21097;-84
2022/08/23 08:23:36;;;;;;;16.52;12.88;;;;;;;20.26;100.00;98840.08;4402627;78;20990;-84
2022/08/23 08:29:42;;;;;;;13.28;11.28;;;;;;;20.35;100.00;98845.75;4458213;78;21062;-83
2022/08/23 08:35:48;;;;;;;16.82;11.95;;;;;;;20.44;100.00;98848.64;4462302;78;21046;-83
2022/08/23 08:42:10;;;;;;;17.50;12.78;;;;;;;20.46;100.00;98857.93;4390161;79;21057;-83
2022/08/23 08:48:16;;;;;;;20.43;13.30;;;;;;;20.46;100.00;98863.49;4369376;79;21006;-84
2022/08/23 08:54:25;;;;;;;19.23;14.20;;;;;;;20.53;100.00;98859.12;4459029;78;21043;-84
2022/08/23 09:00:37;;;;;;;19.98;13.53;;;;;;;20.64;100.00;98867.91;4464234;78;21017;-84
2022/08/23 09:06:57;;;;;;;18.27;13.28;;;;;;;20.69;100.00;98870.90;4464353;78;21001;-83
2022/08/23 09:13:46;;;;;;;16.90;11.68;;;;;;;20.71;100.00;98867.06;4497234;77;21554;-84
2022/08/23 09:19:59;;;;;;;13.68;11.30;;;;;;;20.89;100.00;98869.29;4463441;78;21016;-84
2022/08/23 09:26:06;;;;;;;15.88;11.10;;;;;;;21.28;100.00;98866.78;4534958;77;20998;-84
2022/08/23 09:32:33;;;;;;;13.78;10.85;;;;;;;21.44;100.00;98862.45;4458651;80;20985;-84
2022/08/23 09:38:38;;;;;;;12.33;10.45;;;;;;;21.63;100.00;98857.81;4517851;77;20979;-83
2022/08/23 09:44:42;;;;;;;15.50;10.53;;;;;;;21.87;100.00;98863.16;4450020;78;21930;-84
2022/08/23 09:51:01;;;;;;;11.20;9.95;;;;;;;22.34;100.00;98865.16;4451500;78;21408;-84
2022/08/23 09:57:08;;;;;;;14.85;10.10;;;;;;;23.15;100.00;98871.70;4525708;77;22157;-84
2022/08/23 10:03:30;;;;;;;10.58;8.85;;;;;;;23.45;100.00;98866.67;4462688;78;21062;-84
2022/08/23 10:09:39;;;;;;;11.70;9.20;;;;;;;23.49;100.00;98866.52;4461048;78;21464;-83
2022/08/23 10:16:32;;;;;;;13.05;9.60;;;;;;;24.40;100.00;98883.41;4346749;79;20999;-84
2022/08/23 10:23:14;;;;;;;15.10;9.33;;;;;;;24.40;100.00;98883.41;4372421;80;21007;-84
2022/08/23 10:29:47;;;;;;;11.80;9.33;;;;;;;24.22;100.00;98874.44;4411423;79;21033;-84
2022/08/23 10:36:39;;;;;;;10.20;8.80;;;;;;;24.32;100.00;98880.78;4349978;79;21004;-84
2022/08/23 10:49:21;;;;;;;12.20;8.85;;;;;;;25.59;100.00;98878.96;4050859;86;21084;-83
2022/08/23 10:56:12;;;;;;;11.78;8.90;;;;;;;25.42;100.00;98879.86;4015434;86;21154;-85
2022/08/23 11:03:10;;;;;;;10.63;9.60;;;;;;;24.99;100.00;98884.61;4035202;86;21045;-85
2022/08/23 11:09:53;;;;;;;10.68;9.60;;;;;;;24.58;100.00;98894.54;4120368;83;21070;-84
2022/08/23 11:23:06;;;;;;;10.13;8.83;;;;;;;24.15;100.00;98897.11;4218431;82;21102;-84
2022/08/23 11:29:26;;;;;;;15.95;9.95;;;;;;;24.37;100.00;98897.70;4242022;80;21661;-84
2022/08/23 11:36:23;;;;;;;10.82;9.25;;;;;;;24.41;100.00;98908.73;4469506;77;21054;-85
2022/08/23 11:42:48;;;;;;;10.75;9.65;;;;;;;24.22;100.00;98914.98;4413170;79;21514;-85
2022/08/23 12:03:09;;;;;;;11.05;9.00;;;;;;;24.22;99.31;98908.61;4285723;81;21062;-85
2022/08/23 12:16:17;;;;;;;9.95;8.80;;;;;;;24.42;96.82;98897.08;4053038;84;21140;-83
2022/08/23 12:22:44;;;;;;;10.65;8.88;;;;;;;24.42;96.82;98897.08;4114152;85;21013;-84
2022/08/23 12:29:12;;;;;;;10.98;8.65;;;;;;;24.43;95.46;98916.05;4191820;82;21960;-84
2022/08/23 12:35:46;;;;;;;10.82;8.73;;;;;;;24.18;95.44;98917.80;4219824;82;21923;-86
2022/08/23 12:42:33;;;;;;;17.48;8.08;;;;;;;24.21;95.60;98916.21;4376469;78;20967;-84
2022/08/23 12:48:54;;;;;;;9.95;7.45;;;;;;;24.32;95.23;98911.56;4569088;77;20979;-84
2022/08/23 12:55:14;;;;;;;8.73;7.20;;;;;;;24.14;93.50;98882.98;4578195;76;20943;-84
2022/08/23 13:02:19;;;;;;;8.58;7.45;;;;;;;24.14;93.50;98882.98;4579908;77;20975;-84
2022/08/23 13:08:49;;;;;;;8.78;7.87;;;;;;;24.24;92.89;98907.53;4395982;77;21436;-86
2022/08/23 13:15:17;;;;;;;7.80;7.05;;;;;;;24.25;93.19;98898.67;4495329;77;20989;-85
2022/08/23 13:28:14;;;;;;;8.50;7.67;;;;;;;24.40;92.95;98912.14;4327282;80;20970;-85
2022/08/23 13:41:22;;;;;;;7.17;6.47;;;;;;;24.42;91.72;98898.47;4321712;80;20158;-85
2022/08/23 13:47:28;;;;;;;8.98;6.67;;;;;;;24.37;91.82;98905.31;4370382;80;21037;-86
2022/08/23 13:53:36;;;;;;;7.42;6.33;;;;;;;24.22;90.81;98897.42;4333183;80;21045;-84
2022/08/23 13:59:54;;;;;;;6.83;5.78;;;;;;;24.14;90.88;98890.59;4351005;80;21036;-85
2022/08/23 14:05:59;;;;;;;6.83;6.12;;;;;;;24.02;90.80;98890.16;4340457;77;21006;-85
2022/08/23 14:12:29;;;;;;;9.45;7.22;;;;;;;24.01;90.72;98887.18;4556337;76;21024;-86
2022/08/23 14:18:31;;;;;;;9.13;7.03;;;;;;;24.00;90.36;98891.23;4497408;76;21011;-85
2022/08/23 14:24:49;;;;;;;7.62;6.83;;;;;;;24.01;90.11;98893.56;4553146;76;21501;-85
2022/08/23 14:31:02;;;;;;;10.53;7.08;;;;;;;24.06;90.15;98893.55;4396292;79;21015;-85
2022/08/23 14:37:03;;;;;;;7.53;6.72;;;;;;;24.11;90.32;98882.53;4559304;75;20979;-86
2022/08/23 14:43:22;;;;;;;10.15;7.70;;;;;;;24.15;89.82;98877.54;4564772;76;21514;-86
2022/08/23 14:49:27;;;;;;;10.25;8.30;;;;;;;24.15;89.58;98875.38;4506031;77;20991;-84
2022/08/23 14:55:29;;;;;;;10.95;8.20;;;;;;;24.18;88.78;98879.39;4455570;77;80402;-86
2022/08/23 15:01:32;;;;;;;10.15;9.13;;;;;;;24.20;88.65;98876.12;4215723;78;21155;-84
2022/08/23 15:14:11;;;;;;;12.33;9.00;;;;;;;24.15;87.90;98900.55;4240839;80;21227;-83
2022/08/23 15:20:15;;;;;;;11.00;9.70;;;;;;;24.05;87.50;98902.58;4196854;79;21205;-84
2022/08/23 15:26:20;;;;;;;11.55;9.68;;;;;;;23.99;87.57;98914.21;4191503;78;21467;-83
2022/08/23 15:52:54;;;;;;;11.90;10.00;;;;;;;23.90;87.17;98932.36;4280432;78;21272;-84
2022/08/23 16:05:38;;;;;;;11.80;9.28;;;;;;;23.69;87.63;98943.69;3706769;78;10001010;-82
2022/08/23 16:11:40;;;;;;;12.70;10.13;;;;;;;23.58;87.69;98941.35;4239596;82;21134;-82
2022/08/23 16:17:41;;;;;;;13.35;10.28;;;;;;;23.44;87.76;98944.73;4152221;83;21051;-85
2022/08/23 16:23:43;;;;;;;12.60;10.72;;;;;;;23.30;88.16;98948.73;4223798;81;21012;-82
2022/08/23 16:29:47;;;;;;;13.90;11.85;;;;;;;23.16;88.02;98965.42;4252093;82;21183;-85
2022/08/23 17:02:47;;;;;;;15.20;12.88;;;;;;;23.04;89.43;98972.65;4595155;75;22948;-87
2022/08/23 17:08:49;;;;;;;15.08;12.78;;;;;;;22.83;89.81;98986.66;4515539;77;21047;-88
2022/08/23 17:14:50;;;;;;;18.37;14.18;;;;;;;22.64;90.57;98984.39;4514861;78;20957;-87
2022/08/23 17:20:52;;;;;;;17.05;13.58;;;;;;;22.51;90.70;99009.36;4517188;77;20991;-88
2022/08/23 17:26:54;;;;;;;18.27;14.60;;;;;;;22.40;91.35;99001.39;4513851;77;20975;-84
2022/08/23 17:32:56;;;;;;;20.37;14.55;;;;;;;22.28;91.80;98981.32;4517608;77;20991;-84
2022/08/23 17:38:58;;;;;;;17.55;14.60;;;;;;;22.14;91.96;98987.41;4516821;77;20970;-83
2022/08/23 17:44:59;;;;;;;18.20;14.95;;;;;;;22.03;92.19;98991.79;4514873;77;20987;-85
2022/08/23 17:51:01;;;;;;;16.17;14.20;;;;;;;21.94;92.70;99009.83;4389645;77;9999811;-84
2022/08/23 17:57:03;;;;;;;17.05;14.55;;;;;;;21.84;93.25;99016.53;4514511;77;21019;-84
2022/08/23 18:03:05;;;;;;;19.35;15.83;;;;;;;21.73;93.64;99015.47;4516222;77;20974;-85
2022/08/23 18:09:07;;;;;;;22.62;15.90;;;;;;;21.55;94.43;99023.63;4514004;77;21893;-85
2022/08/23 18:15:10;;;;;;;21.40;16.37;;;;;;;21.46;94.71;99050.77;4517079;77;20998;-85
2022/08/23 18:21:12;;;;;;;21.80;16.30;;;;;;;21.33;95.29;99065.30;4516890;77;22090;-85
2022/08/23 18:33:34;;;;;;;21.25;15.85;;;;;;;21.19;96.37;99085.85;4513913;78;21547;-85
2022/08/23 18:39:35;;;;;;;19.82;15.58;;;;;;;21.11;96.57;99082.48;4515655;77;21528;-84
2022/08/23 18:45:37;;;;;;;22.45;16.62;;;;;;;20.97;97.34;99093.27;4546000;77;20968;-84
2022/08/23 18:51:49;;;;;;;23.85;17.65;;;;;;;20.92;97.85;99090.36;4462027;78;21003;-84
2022/08/23 18:57:50;;;;;;;28.73;20.70;;;;;;;20.86;98.16;99093.52;4516366;77;21937;-85
2022/08/23 19:03:53;;;;;;;32.58;20.43;;;;;;;20.79;98.57;99106.27;4515045;78;20951;-84
2022/08/23 19:09:57;;;;;;;27.48;19.42;;;;;;;20.74;98.96;99106.80;4501034;77;20924;-84
2022/08/23 19:16:01;;;;;;;26.15;18.67;;;;;;;20.72;99.58;99107.08;4576855;78;21605;-84
2022/08/23 19:22:05;;;;;;;32.80;18.97;;;;;;;20.68;100.00;99115.51;4419043;77;9999934;-84
2022/08/23 19:28:10;;;;;;;31.10;20.05;;;;;;;20.59;100.00;99114.58;4499366;77;21678;-84
2022/08/23 19:34:12;;;;;;;26.30;19.12;;;;;;;20.57;100.00;99127.53;4498260;78;21019;-84
2022/08/23 19:40:14;;;;;;;28.32;18.75;;;;;;;20.60;100.00;99138.38;4502900;78;20945;-84
2022/08/23 19:46:16;;;;;;;28.40;21.52;;;;;;;20.57;100.00;99142.04;4496528;78;20953;-84
2022/08/23 19:52:19;;;;;;;28.00;20.15;;;;;;;20.51;100.00;99137.63;4528633;78;21476;-85
2022/08/23 19:58:27;;;;;;;30.00;21.30;;;;;;;20.45;100.00;99134.42;4509583;78;20979;-84
2022/08/23 20:04:33;;;;;;;30.60;22.07;;;;;;;20.38;100.00;99130.42;4382486;80;21034;-84
2022/08/23 20:10:34;;;;;;;28.80;22.17;;;;;;;20.33;100.00;99146.27;4375773;80;21022;-84
2022/08/23 20:16:37;;;;;;;36.20;24.87;;;;;;;20.26;100.00;99141.67;4369337;80;21959;-85
2022/08/23 20:29:22;;;;;;;37.98;24.25;;;;;;;20.17;100.00;99176.25;4436277;80;21110;-84
2022/08/23 20:35:25;;;;;;;38.63;25.43;;;;;;;20.12;100.00;99174.72;4415267;80;20952;-85
2022/08/23 20:47:58;;;;;;;37.70;26.65;;;;;;;20.13;100.00;99161.61;4390694;79;20943;-84
2022/08/23 20:54:00;;;;;;;44.35;27.10;;;;;;;20.10;100.00;99170.82;4403190;79;21594;-83
2022/08/23 21:00:04;;;;;;;38.73;25.43;;;;;;;20.08;100.00;99168.48;4448772;78;21027;-84
2022/08/23 21:06:36;;;;;;;39.45;26.12;;;;;;;20.09;100.00;99174.83;4519077;77;20988;-83
2022/08/23 21:12:38;;;;;;;44.90;27.40;;;;;;;20.07;100.00;99169.70;4499975;78;20947;-84
2022/08/23 21:18:40;;;;;;;44.60;26.82;;;;;;;20.02;100.00;99172.20;4378384;80;20954;-83
2022/08/23 21:24:42;;;;;;;41.02;26.27;;;;;;;20.01;100.00;99168.63;4399965;80;21606;-83
2022/08/23 21:30:44;;;;;;;43.48;27.98;;;;;;;19.99;100.00;99170.29;4400002;80;21011;-84
2022/08/23 21:36:46;;;;;;;44.80;26.33;;;;;;;19.98;100.00;99167.35;4397652;80;21048;-84
2022/08/23 21:42:50;;;;;;;40.05;27.02;;;;;;;19.96;100.00;99170.56;4390483;80;21978;-84
2022/08/23 21:48:52;;;;;;;44.08;27.90;;;;;;;19.98;100.00;99172.91;4343936;81;21624;-83
2022/08/23 21:54:54;;;;;;;41.83;27.85;;;;;;;19.95;100.00;99170.37;4348790;80;21054;-84
2022/08/23 22:00:55;;;;;;;41.65;26.42;;;;;;;19.96;100.00;99172.55;4323887;80;21069;-83
2022/08/23 22:13:46;;;;;;;42.70;28.30;;;;;;;19.94;100.00;99158.30;4342325;81;20984;-84
2022/08/23 22:19:47;;;;;;;44.75;25.60;;;;;;;19.92;100.00;99160.13;4336269;81;21547;-86
2022/08/23 22:26:12;;;;;;;37.15;26.55;;;;;;;19.91;100.00;99162.73;4344451;81;21072;-84
2022/08/23 22:32:14;;;;;;;37.63;25.40;;;;;;;19.89;100.00;99156.03;4345173;80;20983;-83
2022/08/23 22:38:16;;;;;;;40.15;25.32;;;;;;;19.88;100.00;99151.11;4346030;81;20970;-84
2022/08/23 22:44:18;;;;;;;37.58;24.82;;;;;;;19.86;100.00;99147.18;4390709;81;21043;-84
2022/08/23 22:50:20;;;;;;;41.48;25.20;;;;;;;19.86;100.00;99156.30;4345338;81;21570;-84
2022/08/23 22:56:29;;;;;;;39.70;25.60;;;;;;;19.87;100.00;99155.70;4345216;81;21000;-83
2022/08/23 23:02:34;;;;;;;42.93;27.30;;;;;;;19.84;100.00;99151.78;4356260;80;21633;-84
2022/08/23 23:08:36;;;;;;;42.45;25.32;;;;;;;19.81;100.00;99150.50;4348409;80;21913;-85
2022/08/23 23:14:38;;;;;;;46.35;25.68;;;;;;;19.81;100.00;99156.05;4360643;80;21645;-84
2022/08/23 23:20:39;;;;;;;39.10;24.02;;;;;;;19.81;100.00;99151.26;4360165;80;21948;-84
2022/08/23 23:26:42;;;;;;;41.65;25.85;;;;;;;19.82;100.00;99154.23;4359203;80;21000;-84
2022/08/23 23:32:43;;;;;;;40.23;25.05;;;;;;;19.81;100.00;99158.20;4358042;80;21475;-84
2022/08/23 23:38:46;;;;;;;37.38;25.15;;;;;;;19.79;100.00;99159.27;4356153;80;21090;-83
2022/08/23 23:44:54;;;;;;;44.88;24.65;;;;;;;19.78;100.00;99157.68;4327047;80;20986;-84
2022/08/23 23:50:59;;;;;;;36.53;23.55;;;;;;;19.74;100.00;99170.88;4355940;80;21041;-83
2022/08/23 23:57:04;;;;;;;41.05;25.90;;;;;;;19.72;100.00;99170.52;4355258;80;21614;-83
